sensor_id;sensor_type;location;lat;lon;timestamp;pressure;altitude;pressure_sealevel;temperature;humidity
17060;BME280;8646;49.716;9.266;2023-12-20T00:00:34;100289.69;;;7.48;95.73
17060;BME280;8646;49.716;9.266;2023-12-20T00:03:37;100293.28;;;7.48;95.84
17060;BME280;8646;49.716;9.266;2023-12-20T00:06:43;100271.19;;;7.37;95.88
17060;BME280;8646;49.716;9.266;2023-12-20T00:09:46;100288.00;;;7.45;96.06
17060;BME280;8646;49.716;9.266;2023-12-20T00:12:49;100282.63;;;7.45;96.23
17060;BME280;8646;49.716;9.266;2023-12-20T00:15:53;100271.91;;;7.42;96.35
17060;BME280;8646;49.716;9.266;2023-12-20T00:18:56;100268.19;;;7.46;96.12
17060;BME280;8646;49.716;9.266;2023-12-20T00:21:59;100266.50;;;7.44;95.74
17060;BME280;8646;49.716;9.266;2023-12-20T00:25:02;100267.41;;;7.43;96.15
17060;BME280;8646;49.716;9.266;2023-12-20T00:28:05;100262.91;;;7.43;95.69
17060;BME280;8646;49.716;9.266;2023-12-20T00:31:10;100264.78;;;7.41;95.84
17060;BME280;8646;49.716;9.266;2023-12-20T00:34:13;100256.75;;;7.40;95.65
17060;BME280;8646;49.716;9.266;2023-12-20T00:37:16;100255.09;;;7.36;95.96
17060;BME280;8646;49.716;9.266;2023-12-20T00:40:19;100253.31;;;7.35;96.28
17060;BME280;8646;49.716;9.266;2023-12-20T00:43:22;100252.50;;;7.31;96.02
17060;BME280;8646;49.716;9.266;2023-12-20T00:46:27;100245.28;;;7.33;96.20
17060;BME280;8646;49.716;9.266;2023-12-20T00:49:30;100240.69;;;7.37;96.08
17060;BME280;8646;49.716;9.266;2023-12-20T00:52:33;100242.53;;;7.35;95.77
17060;BME280;8646;49.716;9.266;2023-12-20T00:55:35;100241.66;;;7.34;96.30
17060;BME280;8646;49.716;9.266;2023-12-20T00:58:38;100227.59;;;7.24;96.12
17060;BME280;8646;49.716;9.266;2023-12-20T01:01:42;100233.63;;;7.33;95.84
17060;BME280;8646;49.716;9.266;2023-12-20T01:04:45;100233.75;;;7.30;95.92
17060;BME280;8646;49.716;9.266;2023-12-20T01:07:48;100214.25;;;7.21;95.70
17060;BME280;8646;49.716;9.266;2023-12-20T01:10:51;100231.06;;;7.30;95.90
17060;BME280;8646;49.716;9.266;2023-12-20T01:13:54;100227.59;;;7.24;95.91
17060;BME280;8646;49.716;9.266;2023-12-20T01:16:59;100221.22;;;7.28;95.53
17060;BME280;8646;49.716;9.266;2023-12-20T01:20:02;100208.06;;;7.18;95.44
17060;BME280;8646;49.716;9.266;2023-12-20T01:23:05;100216.72;;;7.29;95.20
17060;BME280;8646;49.716;9.266;2023-12-20T01:26:08;100210.72;;;7.19;95.63
17060;BME280;8646;49.716;9.266;2023-12-20T01:29:10;100216.06;;;7.21;95.45
17060;BME280;8646;49.716;9.266;2023-12-20T01:32:15;100217.00;;;7.20;95.27
17060;BME280;8646;49.716;9.266;2023-12-20T01:35:17;100220.50;;;7.22;95.67
17060;BME280;8646;49.716;9.266;2023-12-20T01:38:20;100219.56;;;7.23;95.66
17060;BME280;8646;49.716;9.266;2023-12-20T01:41:23;100211.69;;;7.17;95.67
17060;BME280;8646;49.716;9.266;2023-12-20T01:44:26;100226.91;;;7.18;95.64
17060;BME280;8646;49.716;9.266;2023-12-20T01:47:30;100217.88;;;7.20;95.52
17060;BME280;8646;49.716;9.266;2023-12-20T01:50:35;100196.81;;;7.05;95.62
17060;BME280;8646;49.716;9.266;2023-12-20T01:53:39;100226.06;;;7.16;95.43
17060;BME280;8646;49.716;9.266;2023-12-20T01:56:43;100228.00;;;7.12;95.33
17060;BME280;8646;49.716;9.266;2023-12-20T01:59:46;100225.22;;;7.14;95.68
17060;BME280;8646;49.716;9.266;2023-12-20T02:02:52;100227.22;;;7.07;94.47
17060;BME280;8646;49.716;9.266;2023-12-20T02:05:56;100234.38;;;7.08;95.02
17060;BME280;8646;49.716;9.266;2023-12-20T02:08:59;100242.38;;;7.11;95.00
17060;BME280;8646;49.716;9.266;2023-12-20T02:12:02;100239.75;;;7.08;94.94
17060;BME280;8646;49.716;9.266;2023-12-20T02:15:07;100234.50;;;7.05;95.59
17060;BME280;8646;49.716;9.266;2023-12-20T02:18:11;100228.22;;;7.05;95.31
17060;BME280;8646;49.716;9.266;2023-12-20T02:21:17;100223.81;;;7.02;94.81
17060;BME280;8646;49.716;9.266;2023-12-20T02:24:21;100230.94;;;7.03;95.33
17060;BME280;8646;49.716;9.266;2023-12-20T02:27:23;100229.22;;;7.01;95.01
17060;BME280;8646;49.716;9.266;2023-12-20T02:30:26;100222.22;;;6.95;95.54
17060;BME280;8646;49.716;9.266;2023-12-20T02:33:32;100239.56;;;7.14;94.81
17060;BME280;8646;49.716;9.266;2023-12-20T02:36:36;100225.56;;;7.03;94.71
17060;BME280;8646;49.716;9.266;2023-12-20T02:39:40;100238.75;;;7.12;94.11
17060;BME280;8646;49.716;9.266;2023-12-20T02:42:43;100245.41;;;6.99;94.95
17060;BME280;8646;49.716;9.266;2023-12-20T02:45:46;100225.66;;;7.00;94.52
17060;BME280;8646;49.716;9.266;2023-12-20T02:48:49;100233.94;;;6.93;94.98
17060;BME280;8646;49.716;9.266;2023-12-20T02:51:51;100233.94;;;6.93;95.26
17060;BME280;8646;49.716;9.266;2023-12-20T02:54:56;100234.81;;;6.93;95.42
17060;BME280;8646;49.716;9.266;2023-12-20T02:57:59;100229.38;;;6.96;95.10
17060;BME280;8646;49.716;9.266;2023-12-20T03:01:02;100215.25;;;6.88;95.23
17060;BME280;8646;49.716;9.266;2023-12-20T03:04:05;100224.25;;;6.87;95.14
17060;BME280;8646;49.716;9.266;2023-12-20T03:07:08;100233.22;;;6.87;95.51
17060;BME280;8646;49.716;9.266;2023-12-20T03:10:12;100226.06;;;6.86;95.68
17060;BME280;8646;49.716;9.266;2023-12-20T03:13:24;100217.03;;;6.89;95.91
17060;BME280;8646;49.716;9.266;2023-12-20T03:16:27;100210.66;;;6.92;95.96
17060;BME280;8646;49.716;9.266;2023-12-20T03:19:30;100213.34;;;6.92;95.68
17060;BME280;8646;49.716;9.266;2023-12-20T03:22:33;100215.34;;;6.85;95.56
17060;BME280;8646;49.716;9.266;2023-12-20T03:25:37;100234.75;;;6.96;95.20
17060;BME280;8646;49.716;9.266;2023-12-20T03:28:40;100225.75;;;6.97;95.02
17060;BME280;8646;49.716;9.266;2023-12-20T03:31:42;100210.63;;;6.93;95.50
17060;BME280;8646;49.716;9.266;2023-12-20T03:34:45;100211.53;;;6.92;95.41
17060;BME280;8646;49.716;9.266;2023-12-20T03:37:50;100223.84;;;7.01;94.97
17060;BME280;8646;49.716;9.266;2023-12-20T03:40:54;100189.09;;;6.93;94.33
17060;BME280;8646;49.716;9.266;2023-12-20T03:43:57;100213.22;;;6.96;94.49
17060;BME280;8646;49.716;9.266;2023-12-20T03:47:00;100216.88;;;6.94;94.66
17060;BME280;8646;49.716;9.266;2023-12-20T03:50:03;100214.28;;;6.90;94.87
17060;BME280;8646;49.716;9.266;2023-12-20T03:53:06;100217.88;;;6.89;95.11
17060;BME280;8646;49.716;9.266;2023-12-20T03:56:11;100216.00;;;6.93;95.33
17060;BME280;8646;49.716;9.266;2023-12-20T03:59:14;100202.13;;;7.07;94.71
17060;BME280;8646;49.716;9.266;2023-12-20T04:02:16;100203.25;;;7.00;94.58
17060;BME280;8646;49.716;9.266;2023-12-20T04:05:20;100213.31;;;6.93;94.86
17060;BME280;8646;49.716;9.266;2023-12-20T04:08:23;100216.84;;;6.95;95.58
17060;BME280;8646;49.716;9.266;2023-12-20T04:11:27;100215.84;;;6.98;95.57
17060;BME280;8646;49.716;9.266;2023-12-20T04:14:30;100202.19;;;7.05;95.19
17060;BME280;8646;49.716;9.266;2023-12-20T04:17:33;100211.34;;;6.98;95.52
17060;BME280;8646;49.716;9.266;2023-12-20T04:20:36;100204.03;;;7.03;95.39
17060;BME280;8646;49.716;9.266;2023-12-20T04:23:38;100218.22;;;7.08;95.54
17060;BME280;8646;49.716;9.266;2023-12-20T04:26:43;100222.72;;;7.08;95.82
17060;BME280;8646;49.716;9.266;2023-12-20T04:29:46;100215.56;;;7.07;95.41
17060;BME280;8646;49.716;9.266;2023-12-20T04:32:49;100230.56;;;7.15;95.57
17060;BME280;8646;49.716;9.266;2023-12-20T04:35:51;100224.03;;;7.24;94.55
17060;BME280;8646;49.716;9.266;2023-12-20T04:38:55;100234.09;;;7.17;95.00
17060;BME280;8646;49.716;9.266;2023-12-20T04:41:59;100240.38;;;7.18;95.12
17060;BME280;8646;49.716;9.266;2023-12-20T04:45:01;100242.22;;;7.16;95.67
17060;BME280;8646;49.716;9.266;2023-12-20T04:48:05;100241.47;;;7.11;95.81
17060;BME280;8646;49.716;9.266;2023-12-20T04:51:08;100250.47;;;7.10;95.78
17060;BME280;8646;49.716;9.266;2023-12-20T04:54:11;100243.47;;;7.04;96.18
17060;BME280;8646;49.716;9.266;2023-12-20T04:57:16;100249.38;;;7.17;96.72
17060;BME280;8646;49.716;9.266;2023-12-20T05:00:19;100257.75;;;7.06;96.85
17060;BME280;8646;49.716;9.266;2023-12-20T05:03:22;100268.50;;;7.06;97.43
17060;BME280;8646;49.716;9.266;2023-12-20T05:06:25;100264.94;;;7.06;97.71
17060;BME280;8646;49.716;9.266;2023-12-20T05:09:28;100278.00;;;7.19;96.87
17060;BME280;8646;49.716;9.266;2023-12-20T05:12:33;100272.59;;;7.21;96.93
17060;BME280;8646;49.716;9.266;2023-12-20T05:15:35;100274.31;;;7.22;97.09
17060;BME280;8646;49.716;9.266;2023-12-20T05:18:38;100274.66;;;7.11;97.64
17060;BME280;8646;49.716;9.266;2023-12-20T05:21:41;100275.53;;;7.12;97.18
17060;BME280;8646;49.716;9.266;2023-12-20T05:24:44;100284.34;;;7.17;97.55
17060;BME280;8646;49.716;9.266;2023-12-20T05:27:48;100295.16;;;7.15;97.34
17060;BME280;8646;49.716;9.266;2023-12-20T05:30:51;100289.78;;;7.15;97.57
17060;BME280;8646;49.716;9.266;2023-12-20T05:33:54;100286.16;;;7.16;97.40
17060;BME280;8646;49.716;9.266;2023-12-20T05:36:57;100293.09;;;7.25;97.36
17060;BME280;8646;49.716;9.266;2023-12-20T05:40:00;100291.31;;;7.24;97.31
17060;BME280;8646;49.716;9.266;2023-12-20T05:43:05;100288.78;;;7.19;97.47
17060;BME280;8646;49.716;9.266;2023-12-20T05:46:10;100208.47;;;6.75;97.89
17060;BME280;8646;49.716;9.266;2023-12-20T05:49:13;100285.81;;;7.28;97.50
17060;BME280;8646;49.716;9.266;2023-12-20T05:52:16;100300.09;;;7.31;97.08
17060;BME280;8646;49.716;9.266;2023-12-20T05:55:19;100312.72;;;7.28;97.36
17060;BME280;8646;49.716;9.266;2023-12-20T05:58:23;100324.47;;;7.26;97.36
17060;BME280;8646;49.716;9.266;2023-12-20T06:01:26;100333.53;;;7.22;97.00
17060;BME280;8646;49.716;9.266;2023-12-20T06:04:29;100331.78;;;7.21;96.98
17060;BME280;8646;49.716;9.266;2023-12-20T06:07:32;100341.69;;;7.20;97.01
17060;BME280;8646;49.716;9.266;2023-12-20T06:10:35;100340.78;;;7.20;97.12
17060;BME280;8646;49.716;9.266;2023-12-20T06:13:39;100336.44;;;7.14;97.01
17060;BME280;8646;49.716;9.266;2023-12-20T06:16:42;100348.06;;;7.16;97.01
17060;BME280;8646;49.716;9.266;2023-12-20T06:19:45;100361.50;;;7.16;96.28
17060;BME280;8646;49.716;9.266;2023-12-20T06:22:50;100361.44;;;7.19;96.16
17060;BME280;8646;49.716;9.266;2023-12-20T06:25:52;100373.19;;;7.15;96.59
17060;BME280;8646;49.716;9.266;2023-12-20T06:28:57;100371.41;;;7.16;96.52
17060;BME280;8646;49.716;9.266;2023-12-20T06:31:59;100369.63;;;7.15;95.52
17060;BME280;8646;49.716;9.266;2023-12-20T06:35:03;100372.53;;;7.07;96.01
17060;BME280;8646;49.716;9.266;2023-12-20T06:38:06;100380.75;;;7.03;96.14
17060;BME280;8646;49.716;9.266;2023-12-20T06:41:13;100364.91;;;6.90;95.85
17060;BME280;8646;49.716;9.266;2023-12-20T06:44:18;100396.19;;;6.96;95.29
17060;BME280;8646;49.716;9.266;2023-12-20T06:47:21;100373.38;;;6.77;95.27
17060;BME280;8646;49.716;9.266;2023-12-20T06:50:24;100390.31;;;6.80;95.13
17060;BME280;8646;49.716;9.266;2023-12-20T06:53:27;100383.25;;;6.76;95.27
17060;BME280;8646;49.716;9.266;2023-12-20T06:56:29;100383.56;;;6.64;95.07
17060;BME280;8646;49.716;9.266;2023-12-20T06:59:38;100371.44;;;6.48;94.89
17060;BME280;8646;49.716;9.266;2023-12-20T07:02:41;100381.63;;;6.34;94.92
17060;BME280;8646;49.716;9.266;2023-12-20T07:05:44;100355.53;;;6.02;94.83
17060;BME280;8646;49.716;9.266;2023-12-20T07:08:47;100378.75;;;6.06;95.31
17060;BME280;8646;49.716;9.266;2023-12-20T07:11:50;100383.47;;;5.95;95.49
17060;BME280;8646;49.716;9.266;2023-12-20T07:14:54;100393.44;;;5.90;95.86
17060;BME280;8646;49.716;9.266;2023-12-20T07:17:57;100393.63;;;5.81;95.89
17060;BME280;8646;49.716;9.266;2023-12-20T07:21:02;100390.91;;;5.82;95.93
17060;BME280;8646;49.716;9.266;2023-12-20T07:24:06;100396.19;;;5.85;95.25
17060;BME280;8646;49.716;9.266;2023-12-20T07:27:09;100395.28;;;5.85;94.62
17060;BME280;8646;49.716;9.266;2023-12-20T07:30:14;100395.59;;;5.72;94.85
17060;BME280;8646;49.716;9.266;2023-12-20T07:33:17;100398.31;;;5.69;94.75
17060;BME280;8646;49.716;9.266;2023-12-20T07:36:20;100402.91;;;5.64;94.65
17060;BME280;8646;49.716;9.266;2023-12-20T07:39:23;100408.31;;;5.63;94.60
17060;BME280;8646;49.716;9.266;2023-12-20T07:42:26;100413.78;;;5.58;95.11
17060;BME280;8646;49.716;9.266;2023-12-20T07:45:30;100379.31;;;5.38;94.15
17060;BME280;8646;49.716;9.266;2023-12-20T07:48:34;100431.56;;;5.64;94.58
17060;BME280;8646;49.716;9.266;2023-12-20T07:51:37;100403.16;;;5.52;94.35
17060;BME280;8646;49.716;9.266;2023-12-20T07:54:40;100409.38;;;5.56;94.75
17060;BME280;8646;49.716;9.266;2023-12-20T07:57:44;100420.06;;;5.59;94.63
17060;BME280;8646;49.716;9.266;2023-12-20T08:00:48;100439.59;;;5.65;94.30
17060;BME280;8646;49.716;9.266;2023-12-20T08:03:51;100443.19;;;5.64;94.89
17060;BME280;8646;49.716;9.266;2023-12-20T08:06:54;100442.09;;;5.74;94.55
17060;BME280;8646;49.716;9.266;2023-12-20T08:09:57;100426.69;;;5.83;94.42
17060;BME280;8646;49.716;9.266;2023-12-20T08:13:00;100429.22;;;5.92;94.57
17060;BME280;8646;49.716;9.266;2023-12-20T08:16:05;100428.03;;;6.03;94.56
17060;BME280;8646;49.716;9.266;2023-12-20T08:19:08;100402.28;;;5.95;95.18
17060;BME280;8646;49.716;9.266;2023-12-20T08:22:11;100420.16;;;6.34;93.96
17060;BME280;8646;49.716;9.266;2023-12-20T08:25:14;100440.31;;;6.54;94.20
17060;BME280;8646;49.716;9.266;2023-12-20T08:28:18;100427.31;;;6.71;92.69
17060;BME280;8646;49.716;9.266;2023-12-20T08:31:23;100425.22;;;6.82;92.37
17060;BME280;8646;49.716;9.266;2023-12-20T08:34:26;100418.00;;;6.84;91.00
17060;BME280;8646;49.716;9.266;2023-12-20T08:37:29;100425.00;;;6.91;90.61
17060;BME280;8646;49.716;9.266;2023-12-20T08:40:32;100430.53;;;6.85;90.38
17060;BME280;8646;49.716;9.266;2023-12-20T08:43:35;100427.88;;;6.83;90.34
17060;BME280;8646;49.716;9.266;2023-12-20T08:46:39;100443.97;;;6.86;90.97
17060;BME280;8646;49.716;9.266;2023-12-20T08:49:42;100441.00;;;6.97;91.06
17060;BME280;8646;49.716;9.266;2023-12-20T08:52:45;100428.13;;;7.08;90.14
17060;BME280;8646;49.716;9.266;2023-12-20T08:55:49;100447.75;;;7.13;90.33
17060;BME280;8646;49.716;9.266;2023-12-20T08:58:52;100440.28;;;7.23;89.58
17060;BME280;8646;49.716;9.266;2023-12-20T09:01:56;100438.41;;;7.26;90.04
17060;BME280;8646;49.716;9.266;2023-12-20T09:04:59;100351.53;;;6.89;89.42
17060;BME280;8646;49.716;9.266;2023-12-20T09:08:02;100443.53;;;7.36;89.88
17060;BME280;8646;49.716;9.266;2023-12-20T09:11:06;100424.59;;;7.39;89.14
17060;BME280;8646;49.716;9.266;2023-12-20T09:14:09;100421.81;;;7.42;89.57
17060;BME280;8646;49.716;9.266;2023-12-20T09:17:14;100442.06;;;7.55;88.81
17060;BME280;8646;49.716;9.266;2023-12-20T09:20:17;100441.06;;;7.59;89.35
17060;BME280;8646;49.716;9.266;2023-12-20T09:23:21;100441.84;;;7.62;88.55
17060;BME280;8646;49.716;9.266;2023-12-20T09:26:23;100442.66;;;7.66;88.81
17060;BME280;8646;49.716;9.266;2023-12-20T09:29:26;100447.84;;;7.72;88.29
17060;BME280;8646;49.716;9.266;2023-12-20T09:32:30;100440.56;;;7.77;87.06
17060;BME280;8646;49.716;9.266;2023-12-20T09:35:33;100439.47;;;7.83;86.36
17060;BME280;8646;49.716;9.266;2023-12-20T09:38:36;100442.16;;;7.83;87.37
17060;BME280;8646;49.716;9.266;2023-12-20T09:41:43;100442.88;;;7.89;87.08
17060;BME280;8646;49.716;9.266;2023-12-20T09:44:48;100410.06;;;7.75;86.61
17060;BME280;8646;49.716;9.266;2023-12-20T09:47:53;100446.00;;;8.03;86.55
17060;BME280;8646;49.716;9.266;2023-12-20T09:50:56;100449.38;;;8.12;85.91
17060;BME280;8646;49.716;9.266;2023-12-20T09:54:00;100439.34;;;8.17;85.01
17060;BME280;8646;49.716;9.266;2023-12-20T09:57:05;100403.94;;;7.99;85.22
17060;BME280;8646;49.716;9.266;2023-12-20T10:00:09;100439.16;;;8.23;85.16
17060;BME280;8646;49.716;9.266;2023-12-20T10:03:14;100424.94;;;8.18;85.42
17060;BME280;8646;49.716;9.266;2023-12-20T10:06:18;100435.28;;;8.33;85.42
17060;BME280;8646;49.716;9.266;2023-12-20T10:09:21;100426.34;;;8.31;85.58
17060;BME280;8646;49.716;9.266;2023-12-20T10:12:23;100433.94;;;8.46;85.31
17060;BME280;8646;49.716;9.266;2023-12-20T10:15:26;100431.03;;;8.52;85.46
17060;BME280;8646;49.716;9.266;2023-12-20T10:18:30;100429.78;;;8.62;83.51
17060;BME280;8646;49.716;9.266;2023-12-20T10:21:41;100429.84;;;8.61;83.39
17060;BME280;8646;49.716;9.266;2023-12-20T10:24:45;100425.47;;;8.58;83.18
17060;BME280;8646;49.716;9.266;2023-12-20T10:27:50;100425.50;;;8.57;83.06
17060;BME280;8646;49.716;9.266;2023-12-20T10:30:53;100416.44;;;8.59;82.39
17060;BME280;8646;49.716;9.266;2023-12-20T10:34:00;100412.91;;;8.57;82.59
17060;BME280;8646;49.716;9.266;2023-12-20T10:37:04;100365.16;;;8.33;83.02
17060;BME280;8646;49.716;9.266;2023-12-20T10:40:08;100403.75;;;8.61;82.79
17060;BME280;8646;49.716;9.266;2023-12-20T10:43:11;100404.50;;;8.66;83.19
17060;BME280;8646;49.716;9.266;2023-12-20T10:46:15;100399.03;;;8.68;81.99
17060;BME280;8646;49.716;9.266;2023-12-20T10:49:20;100398.66;;;8.78;80.73
17060;BME280;8646;49.716;9.266;2023-12-20T10:52:23;100394.34;;;8.74;80.45
17060;BME280;8646;49.716;9.266;2023-12-20T10:55:27;100394.13;;;8.80;81.42
17060;BME280;8646;49.716;9.266;2023-12-20T10:58:32;100383.00;;;8.90;81.45
17060;BME280;8646;49.716;9.266;2023-12-20T11:01:37;100381.63;;;9.03;80.80
17060;BME280;8646;49.716;9.266;2023-12-20T11:04:47;100387.63;;;9.11;79.88
17060;BME280;8646;49.716;9.266;2023-12-20T11:07:59;100376.41;;;9.23;79.63
17060;BME280;8646;49.716;9.266;2023-12-20T11:11:08;100351.94;;;9.28;79.47
17060;BME280;8646;49.716;9.266;2023-12-20T11:14:18;100373.97;;;9.40;79.59
17060;BME280;8646;49.716;9.266;2023-12-20T11:17:22;100377.66;;;9.38;79.46
17060;BME280;8646;49.716;9.266;2023-12-20T11:20:35;100357.38;;;9.26;77.12
17060;BME280;8646;49.716;9.266;2023-12-20T11:23:42;100362.19;;;9.18;78.32
17060;BME280;8646;49.716;9.266;2023-12-20T11:26:47;100362.22;;;9.16;79.23
17060;BME280;8646;49.716;9.266;2023-12-20T11:29:52;100365.81;;;9.17;79.40
17060;BME280;8646;49.716;9.266;2023-12-20T11:32:55;100351.59;;;9.12;79.30
17060;BME280;8646;49.716;9.266;2023-12-20T11:36:00;100357.84;;;9.14;78.13
17060;BME280;8646;49.716;9.266;2023-12-20T11:39:04;100357.88;;;9.12;77.70
17060;BME280;8646;49.716;9.266;2023-12-20T11:42:12;100340.53;;;8.95;78.77
17060;BME280;8646;49.716;9.266;2023-12-20T11:45:18;100372.22;;;9.14;78.44
17060;BME280;8646;49.716;9.266;2023-12-20T11:48:24;100367.53;;;9.19;77.72
17060;BME280;8646;49.716;9.266;2023-12-20T11:51:28;100359.59;;;9.15;77.68
17060;BME280;8646;49.716;9.266;2023-12-20T11:54:31;100356.78;;;9.18;77.88
17060;BME280;8646;49.716;9.266;2023-12-20T11:57:33;100359.59;;;9.15;77.12
17060;BME280;8646;49.716;9.266;2023-12-20T12:00:36;100360.53;;;9.14;77.72
17060;BME280;8646;49.716;9.266;2023-12-20T12:03:39;100346.44;;;9.06;77.98
17060;BME280;8646;49.716;9.266;2023-12-20T12:06:43;100362.50;;;9.09;78.29
17060;BME280;8646;49.716;9.266;2023-12-20T12:09:47;100351.78;;;9.07;78.00
17060;BME280;8646;49.716;9.266;2023-12-20T12:12:50;100346.31;;;9.09;78.04
17060;BME280;8646;49.716;9.266;2023-12-20T12:15:53;100304.28;;;8.77;78.30
17060;BME280;8646;49.716;9.266;2023-12-20T12:18:57;100351.59;;;9.12;78.16
17060;BME280;8646;49.716;9.266;2023-12-20T12:22:08;100347.38;;;9.05;78.93
17060;BME280;8646;49.716;9.266;2023-12-20T12:25:16;100341.78;;;9.09;78.27
17060;BME280;8646;49.716;9.266;2023-12-20T12:28:20;100341.63;;;9.14;78.73
17060;BME280;8646;49.716;9.266;2023-12-20T12:31:23;100342.34;;;9.19;78.93
17060;BME280;8646;49.716;9.266;2023-12-20T12:34:29;100329.34;;;9.30;76.66
17060;BME280;8646;49.716;9.266;2023-12-20T12:37:37;100292.88;;;8.94;77.35
17060;BME280;8646;49.716;9.266;2023-12-20T12:40:43;100331.50;;;8.96;77.65
17060;BME280;8646;49.716;9.266;2023-12-20T12:43:46;100339.38;;;9.02;77.58
17060;BME280;8646;49.716;9.266;2023-12-20T12:46:49;100339.50;;;8.99;77.46
17060;BME280;8646;49.716;9.266;2023-12-20T12:49:52;100327.97;;;8.94;76.94
17060;BME280;8646;49.716;9.266;2023-12-20T12:52:57;100331.78;;;8.88;76.99
17060;BME280;8646;49.716;9.266;2023-12-20T12:56:00;100338.94;;;8.89;76.73
17060;BME280;8646;49.716;9.266;2023-12-20T12:59:02;100342.84;;;8.80;77.67
17060;BME280;8646;49.716;9.266;2023-12-20T13:02:07;100335.13;;;8.70;77.66
17060;BME280;8646;49.716;9.266;2023-12-20T13:05:10;100334.97;;;8.74;76.79
17060;BME280;8646;49.716;9.266;2023-12-20T13:08:15;100343.25;;;8.68;77.17
17060;BME280;8646;49.716;9.266;2023-12-20T13:11:17;100346.97;;;8.66;77.36
17060;BME280;8646;49.716;9.266;2023-12-20T13:14:21;100350.41;;;8.69;77.38
17060;BME280;8646;49.716;9.266;2023-12-20T13:17:24;100329.75;;;8.68;77.30
17060;BME280;8646;49.716;9.266;2023-12-20T13:20:30;100309.94;;;8.69;77.45
17060;BME280;8646;49.716;9.266;2023-12-20T13:23:34;100285.47;;;8.75;77.10
17060;BME280;8646;49.716;9.266;2023-12-20T13:26:41;100293.44;;;8.78;77.86
17060;BME280;8646;49.716;9.266;2023-12-20T13:29:45;100275.16;;;8.87;77.39
17060;BME280;8646;49.716;9.266;2023-12-20T13:32:48;100260.63;;;8.91;76.96
17060;BME280;8646;49.716;9.266;2023-12-20T13:35:52;100252.53;;;8.91;76.81
17060;BME280;8646;49.716;9.266;2023-12-20T13:38:57;100247.94;;;8.93;76.54
17060;BME280;8646;49.716;9.266;2023-12-20T13:42:01;100246.31;;;8.89;76.69
17060;BME280;8646;49.716;9.266;2023-12-20T13:45:06;100231.03;;;8.88;76.32
17060;BME280;8646;49.716;9.266;2023-12-20T13:48:09;100225.66;;;8.88;76.58
17060;BME280;8646;49.716;9.266;2023-12-20T13:51:12;100204.44;;;8.77;76.29
17060;BME280;8646;49.716;9.266;2023-12-20T13:54:16;100231.00;;;8.89;75.43
17060;BME280;8646;49.716;9.266;2023-12-20T13:57:22;100233.03;;;8.83;75.80
17060;BME280;8646;49.716;9.266;2023-12-20T14:00:44;100217.13;;;8.75;76.57
17060;BME280;8646;49.716;9.266;2023-12-20T14:03:47;100224.00;;;8.84;76.03
17060;BME280;8646;49.716;9.266;2023-12-20T14:06:50;100212.38;;;8.82;75.96
17060;BME280;8646;49.716;9.266;2023-12-20T14:09:54;100213.88;;;8.90;76.32
17060;BME280;8646;49.716;9.266;2023-12-20T14:12:57;100224.38;;;8.98;76.09
17060;BME280;8646;49.716;9.266;2023-12-20T14:16:01;100215.75;;;8.88;76.19
17060;BME280;8646;49.716;9.266;2023-12-20T14:19:05;100219.41;;;8.86;76.17
17060;BME280;8646;49.716;9.266;2023-12-20T14:22:09;100205.22;;;8.80;76.27
17060;BME280;8646;49.716;9.266;2023-12-20T14:25:14;100232.91;;;8.86;76.21
17060;BME280;8646;49.716;9.266;2023-12-20T14:28:17;100185.25;;;8.61;75.81
17060;BME280;8646;49.716;9.266;2023-12-20T14:31:19;100219.66;;;8.79;76.63
17060;BME280;8646;49.716;9.266;2023-12-20T14:34:23;100239.13;;;8.88;76.31
17060;BME280;8646;49.716;9.266;2023-12-20T14:37:26;100230.00;;;8.92;75.96
17060;BME280;8646;49.716;9.266;2023-12-20T14:40:31;100230.22;;;8.86;76.29
17060;BME280;8646;49.716;9.266;2023-12-20T14:43:34;100227.56;;;8.84;76.03
17060;BME280;8646;49.716;9.266;2023-12-20T14:46:37;100223.34;;;8.77;75.97
17060;BME280;8646;49.716;9.266;2023-12-20T14:49:42;100223.53;;;8.72;76.28
17060;BME280;8646;49.716;9.266;2023-12-20T14:52:45;100206.72;;;8.64;76.42
17060;BME280;8646;49.716;9.266;2023-12-20T14:55:50;100217.84;;;8.55;76.69
17060;BME280;8646;49.716;9.266;2023-12-20T14:58:53;100217.25;;;8.47;76.63
17060;BME280;8646;49.716;9.266;2023-12-20T15:01:56;100227.81;;;8.53;75.60
17060;BME280;8646;49.716;9.266;2023-12-20T15:04:59;100227.38;;;8.40;76.26
17060;BME280;8646;49.716;9.266;2023-12-20T15:08:03;100237.38;;;8.37;76.72
17060;BME280;8646;49.716;9.266;2023-12-20T15:11:07;100229.41;;;8.34;77.42
17060;BME280;8646;49.716;9.266;2023-12-20T15:14:10;100221.59;;;8.25;77.24
17060;BME280;8646;49.716;9.266;2023-12-20T15:17:12;100235.41;;;8.16;77.70
17060;BME280;8646;49.716;9.266;2023-12-20T15:20:15;100227.31;;;8.16;77.39
17060;BME280;8646;49.716;9.266;2023-12-20T15:23:18;100212.28;;;8.09;77.95
17060;BME280;8646;49.716;9.266;2023-12-20T15:26:24;100225.75;;;8.09;77.97
17060;BME280;8646;49.716;9.266;2023-12-20T15:29:27;100214.25;;;8.03;78.05
17060;BME280;8646;49.716;9.266;2023-12-20T15:32:31;100214.09;;;8.08;77.61
17060;BME280;8646;49.716;9.266;2023-12-20T15:35:35;100209.91;;;7.99;77.81
17060;BME280;8646;49.716;9.266;2023-12-20T15:38:38;100230.22;;;8.10;78.27
17060;BME280;8646;49.716;9.266;2023-12-20T15:41:43;100218.53;;;8.11;77.97
17060;BME280;8646;49.716;9.266;2023-12-20T15:44:46;100230.28;;;8.08;78.71
17060;BME280;8646;49.716;9.266;2023-12-20T15:47:48;100230.09;;;8.13;78.30
17060;BME280;8646;49.716;9.266;2023-12-20T15:50:52;100224.66;;;8.14;78.29
17060;BME280;8646;49.716;9.266;2023-12-20T15:53:54;100223.78;;;8.14;78.95
17060;BME280;8646;49.716;9.266;2023-12-20T15:56:59;100229.91;;;8.19;78.59
17060;BME280;8646;49.716;9.266;2023-12-20T16:00:03;100236.13;;;8.21;78.46
17060;BME280;8646;49.716;9.266;2023-12-20T16:03:07;100228.06;;;8.19;79.04
17060;BME280;8646;49.716;9.266;2023-12-20T16:06:26;100223.78;;;8.14;79.16
17060;BME280;8646;49.716;9.266;2023-12-20T16:09:29;100232.63;;;8.19;79.14
17060;BME280;8646;49.716;9.266;2023-12-20T16:12:33;100232.50;;;8.22;79.20
17060;BME280;8646;49.716;9.266;2023-12-20T16:15:36;100231.47;;;8.26;78.98
17060;BME280;8646;49.716;9.266;2023-12-20T16:18:39;100238.72;;;8.24;79.08
17060;BME280;8646;49.716;9.266;2023-12-20T16:21:43;100234.16;;;8.26;79.12
17060;BME280;8646;49.716;9.266;2023-12-20T16:24:46;100227.00;;;8.25;79.11